createdAt,value
2018-05-07T00:00:36.009Z,24.08
2018-05-07T00:01:45.977Z,24.08
2018-05-07T00:02:55.431Z,24.03
2018-05-07T00:04:04.326Z,24.03
2018-05-07T00:05:13.245Z,24.03
2018-05-07T00:06:22.409Z,24.03
2018-05-07T00:07:31.583Z,24.06
2018-05-07T00:08:41.355Z,24.02
2018-05-07T00:09:50.780Z,23.98
2018-05-07T00:10:59.993Z,24.05
2018-05-07T00:12:09.414Z,24
2018-05-07T00:13:18.337Z,23.94
2018-05-07T00:14:27.528Z,24.06
2018-05-07T00:15:36.861Z,23.94
2018-05-07T00:16:46.079Z,24.02
2018-05-07T00:17:55.253Z,23.94
2018-05-07T00:19:04.682Z,24.08
2018-05-07T00:20:14.637Z,24.02
2018-05-07T00:21:23.815Z,23.97
2018-05-07T00:22:33.606Z,23.98
2018-05-07T00:23:43.587Z,24.02
2018-05-07T00:24:53.072Z,23.98
2018-05-07T00:26:02.516Z,24
2018-05-07T00:27:11.946Z,23.98
2018-05-07T00:28:21.263Z,23.94
2018-05-07T00:29:30.958Z,24
2018-05-07T00:30:39.871Z,24.06
2018-05-07T00:31:49.304Z,23.91
2018-05-07T00:32:58.452Z,23.93
2018-05-07T00:34:07.903Z,23.97
2018-05-07T00:35:17.598Z,23.91
2018-05-07T00:36:26.782Z,23.98
2018-05-07T00:37:36.229Z,23.98
2018-05-07T00:38:45.400Z,23.88
2018-05-07T00:39:55.096Z,23.95
2018-05-07T00:41:04.795Z,23.93
2018-05-07T00:42:14.229Z,23.97
2018-05-07T00:43:23.421Z,23.85
2018-05-07T00:44:32.578Z,23.97
2018-05-07T00:45:41.743Z,23.95
2018-05-07T00:46:51.458Z,23.97
2018-05-07T00:48:00.863Z,24
2018-05-07T00:49:10.313Z,23.93
2018-05-07T00:50:19.226Z,23.98
2018-05-07T00:51:28.676Z,23.98
2018-05-07T00:52:37.320Z,23.91
2018-05-07T00:53:47.002Z,23.93
2018-05-07T00:54:56.174Z,23.95
2018-05-07T00:56:05.603Z,23.91
2018-05-07T00:57:15.600Z,23.94
2018-05-07T00:58:25.055Z,23.91
2018-05-07T00:59:33.964Z,23.93
2018-05-07T01:00:43.143Z,23.93
2018-05-07T01:01:52.828Z,23.98
2018-05-07T01:03:02.063Z,23.94
2018-05-07T01:04:12.016Z,23.9
2018-05-07T01:05:21.780Z,24
2018-05-07T01:06:31.217Z,23.95
2018-05-07T01:07:40.195Z,23.98
2018-05-07T01:08:49.384Z,23.98
2018-05-07T01:09:59.071Z,24
2018-05-07T01:11:08.243Z,23.91
2018-05-07T01:12:17.414Z,23.93
2018-05-07T01:13:26.843Z,23.98
2018-05-07T01:14:37.222Z,23.97
2018-05-07T01:15:46.650Z,24.02
2018-05-07T01:16:56.079Z,23.98
2018-05-07T01:18:05.523Z,23.93
2018-05-07T01:19:15.207Z,23.91
2018-05-07T01:20:24.367Z,23.95
2018-05-07T01:21:33.527Z,23.88
2018-05-07T01:22:43.271Z,23.88
2018-05-07T01:23:52.941Z,23.94
2018-05-07T01:25:01.860Z,23.95
2018-05-07T01:26:11.083Z,23.9
2018-05-07T01:27:21.048Z,23.95
2018-05-07T01:28:30.211Z,23.95
2018-05-07T01:29:39.653Z,23.97
2018-05-07T01:30:48.567Z,23.95
2018-05-07T01:31:58.010Z,23.91
2018-05-07T01:33:07.209Z,23.97
2018-05-07T01:34:16.361Z,23.9
2018-05-07T01:35:26.081Z,23.93
2018-05-07T01:36:35.579Z,23.9
2018-05-07T01:37:45.264Z,23.98
2018-05-07T01:38:54.461Z,23.97
2018-05-07T01:40:03.910Z,23.94
2018-05-07T01:41:13.613Z,23.9
2018-05-07T01:42:23.048Z,23.95
2018-05-07T01:43:32.476Z,23.91
2018-05-07T01:44:41.908Z,23.9
2018-05-07T01:45:51.079Z,23.88
2018-05-07T01:47:00.276Z,23.91
2018-05-07T01:48:09.959Z,23.9
2018-05-07T01:49:19.679Z,23.91
2018-05-07T01:50:28.658Z,23.91
2018-05-07T01:51:38.401Z,23.94
2018-05-07T01:52:48.096Z,23.91
2018-05-07T01:53:58.063Z,23.88
2018-05-07T01:55:07.503Z,23.91
2018-05-07T01:56:16.694Z,23.9
2018-05-07T01:57:25.355Z,23.93
2018-05-07T01:58:34.778Z,23.9
2018-05-07T01:59:44.205Z,23.9
2018-05-07T02:00:53.661Z,23.91
2018-05-07T02:02:03.114Z,23.94
2018-05-07T02:03:12.555Z,23.95
2018-05-07T02:04:21.965Z,23.87
2018-05-07T02:05:31.652Z,23.9
2018-05-07T02:06:41.334Z,23.94
2018-05-07T02:07:51.052Z,23.94
2018-05-07T02:09:00.474Z,23.91
2018-05-07T02:10:09.642Z,23.88
2018-05-07T02:11:18.809Z,23.9
2018-05-07T02:12:28.286Z,23.94
2018-05-07T02:13:37.215Z,23.98
2018-05-07T02:14:46.406Z,23.98
2018-05-07T02:15:55.607Z,23.91
2018-05-07T02:17:05.322Z,23.93
2018-05-07T02:18:15.273Z,23.91
2018-05-07T02:19:24.174Z,23.93
2018-05-07T02:20:33.129Z,23.91
2018-05-07T02:21:42.292Z,23.91
2018-05-07T02:22:51.201Z,23.9
2018-05-07T02:24:00.615Z,23.87
2018-05-07T02:25:10.322Z,23.94
2018-05-07T02:26:19.255Z,23.91
2018-05-07T02:27:28.670Z,23.95
2018-05-07T02:28:37.832Z,23.87
2018-05-07T02:29:46.743Z,23.93
2018-05-07T02:30:56.438Z,23.87
2018-05-07T02:32:05.622Z,23.88
2018-05-07T02:33:15.061Z,23.88
2018-05-07T02:34:24.802Z,23.88
2018-05-07T02:35:33.969Z,23.9
2018-05-07T02:36:43.685Z,23.88
2018-05-07T02:37:53.100Z,23.88
2018-05-07T02:39:02.687Z,23.95
2018-05-07T02:40:12.898Z,23.87
2018-05-07T02:41:22.338Z,23.93
2018-05-07T02:42:32.014Z,23.87
2018-05-07T02:43:41.699Z,23.93
2018-05-07T02:44:51.115Z,24.02
2018-05-07T02:46:00.565Z,23.94
2018-05-07T02:47:09.981Z,23.95
2018-05-07T02:48:19.661Z,23.9
2018-05-07T02:49:29.350Z,23.93
2018-05-07T02:50:39.050Z,23.87
2018-05-07T02:51:48.206Z,23.9
2018-05-07T02:52:57.380Z,23.9
2018-05-07T02:54:06.328Z,23.9
2018-05-07T02:55:15.517Z,23.88
2018-05-07T02:56:25.201Z,23.97
2018-05-07T02:57:34.882Z,23.93
2018-05-07T02:58:44.322Z,23.84
2018-05-07T02:59:53.780Z,23.93
2018-05-07T03:01:02.992Z,23.93
2018-05-07T03:02:11.933Z,23.88
2018-05-07T03:03:21.483Z,23.91
2018-05-07T03:04:30.921Z,23.95
2018-05-07T03:05:40.392Z,23.91
2018-05-07T03:06:50.077Z,23.91
2018-05-07T03:07:59.809Z,23.9
2018-05-07T03:09:08.981Z,23.95
2018-05-07T03:10:18.438Z,23.98
2018-05-07T03:11:28.432Z,23.87
2018-05-07T03:12:37.881Z,24
2018-05-07T03:13:47.325Z,23.97
2018-05-07T03:14:56.760Z,23.9
2018-05-07T03:16:06.724Z,23.91
2018-05-07T03:17:16.413Z,23.91
2018-05-07T03:18:25.583Z,23.93
2018-05-07T03:19:35.554Z,23.91
2018-05-07T03:20:45.013Z,23.88
2018-05-07T03:21:54.441Z,23.9
2018-05-07T03:23:03.622Z,23.9
2018-05-07T03:24:12.785Z,23.83
2018-05-07T03:25:21.978Z,23.91
2018-05-07T03:26:31.151Z,23.91
2018-05-07T03:27:40.334Z,23.91
2018-05-07T03:28:49.760Z,23.94
2018-05-07T03:29:58.927Z,23.91
2018-05-07T03:31:08.907Z,23.97
2018-05-07T03:32:18.117Z,23.93
2018-05-07T03:33:27.283Z,23.87
2018-05-07T03:34:36.460Z,23.87
2018-05-07T03:35:45.665Z,23.83
2018-05-07T03:36:55.351Z,23.88
2018-05-07T03:38:04.802Z,23.9
2018-05-07T03:39:14.259Z,23.8
2018-05-07T03:40:24.015Z,23.9
2018-05-07T03:41:33.524Z,23.84
2018-05-07T03:42:42.977Z,23.93
2018-05-07T03:43:52.146Z,23.91
2018-05-07T03:45:01.319Z,23.97
2018-05-07T03:46:11.038Z,23.83
2018-05-07T03:47:20.500Z,23.85
2018-05-07T03:48:29.940Z,23.94
2018-05-07T03:49:39.440Z,23.84
2018-05-07T03:50:48.867Z,23.91
2018-05-07T03:51:57.848Z,23.97
2018-05-07T03:53:06.997Z,23.88
2018-05-07T03:54:16.967Z,23.85
2018-05-07T03:55:25.871Z,23.9
2018-05-07T03:56:35.576Z,23.88
2018-05-07T03:57:44.487Z,23.94
2018-05-07T03:58:54.180Z,23.88
2018-05-07T04:00:03.101Z,23.83
2018-05-07T04:01:12.262Z,23.84
2018-05-07T04:02:21.689Z,23.85
2018-05-07T04:03:30.936Z,23.83
2018-05-07T04:04:40.633Z,23.84
2018-05-07T04:05:49.564Z,23.9
2018-05-07T04:06:58.458Z,23.88
2018-05-07T04:08:08.213Z,23.9
2018-05-07T04:09:17.922Z,23.93
2018-05-07T04:10:27.608Z,23.93
2018-05-07T04:11:36.779Z,23.83
2018-05-07T04:12:45.955Z,23.97
2018-05-07T04:13:55.379Z,23.98
2018-05-07T04:15:04.557Z,23.83
2018-05-07T04:16:14.251Z,23.94
2018-05-07T04:17:23.678Z,23.91
2018-05-07T04:18:33.165Z,24
2018-05-07T04:19:42.840Z,23.85
2018-05-07T04:20:52.277Z,23.88
2018-05-07T04:22:01.504Z,23.84
2018-05-07T04:23:10.691Z,24
2018-05-07T04:24:19.590Z,23.88
2018-05-07T04:25:29.046Z,23.88
2018-05-07T04:26:38.467Z,23.95
2018-05-07T04:27:47.610Z,23.95
2018-05-07T04:28:56.771Z,23.87
2018-05-07T04:30:06.215Z,23.88
2018-05-07T04:31:15.693Z,23.9
2018-05-07T04:32:25.122Z,23.85
2018-05-07T04:33:34.299Z,23.85
2018-05-07T04:34:44.338Z,23.83
2018-05-07T04:35:53.766Z,23.88
2018-05-07T04:37:02.679Z,23.87
2018-05-07T04:38:11.577Z,23.87
2018-05-07T04:39:20.843Z,23.85
2018-05-07T04:40:30.022Z,23.84
2018-05-07T04:41:39.443Z,23.9
2018-05-07T04:42:48.643Z,23.9
2018-05-07T04:43:58.332Z,23.79
2018-05-07T04:45:07.773Z,23.85
2018-05-07T04:46:16.923Z,23.85
2018-05-07T04:47:26.102Z,23.78
2018-05-07T04:48:35.620Z,23.93
2018-05-07T04:49:45.312Z,23.91
2018-05-07T04:50:54.562Z,23.9
2018-05-07T04:52:03.738Z,23.88
2018-05-07T04:53:12.933Z,23.9
2018-05-07T04:54:22.916Z,23.84
2018-05-07T04:55:31.840Z,23.79
2018-05-07T04:56:41.642Z,23.79
2018-05-07T04:57:50.773Z,23.85
2018-05-07T04:58:59.706Z,23.84
2018-05-07T05:00:08.629Z,23.83
2018-05-07T05:01:18.052Z,23.84
2018-05-07T05:02:27.224Z,23.79
2018-05-07T05:03:36.919Z,23.87
2018-05-07T05:04:46.347Z,23.79
2018-05-07T05:05:56.327Z,23.83
2018-05-07T05:07:06.136Z,23.84
2018-05-07T05:08:15.256Z,23.88
2018-05-07T05:09:24.700Z,23.85
2018-05-07T05:10:34.636Z,23.88
2018-05-07T05:11:44.337Z,23.85
2018-05-07T05:12:53.784Z,23.83
2018-05-07T05:14:02.967Z,23.83
2018-05-07T05:15:12.654Z,23.83
2018-05-07T05:16:22.083Z,23.85
2018-05-07T05:17:32.022Z,23.76
2018-05-07T05:18:41.739Z,23.83
2018-05-07T05:19:50.670Z,23.78
2018-05-07T05:21:00.388Z,23.83
2018-05-07T05:22:10.208Z,23.84
2018-05-07T05:23:19.681Z,23.84
2018-05-07T05:24:29.100Z,23.8
2018-05-07T05:25:38.794Z,23.8
2018-05-07T05:26:48.261Z,23.87
2018-05-07T05:27:57.539Z,23.79
2018-05-07T05:29:07.211Z,23.83
2018-05-07T05:30:16.925Z,23.8
2018-05-07T05:31:26.607Z,23.9
2018-05-07T05:32:35.776Z,23.85
2018-05-07T05:33:45.206Z,23.83
2018-05-07T05:34:55.164Z,23.88
2018-05-07T05:36:04.577Z,23.88
2018-05-07T05:37:13.576Z,23.79
2018-05-07T05:38:23.469Z,23.83
2018-05-07T05:39:32.405Z,23.88
2018-05-07T05:40:42.098Z,23.78
2018-05-07T05:41:52.045Z,23.87
2018-05-07T05:43:01.479Z,23.95
2018-05-07T05:44:11.183Z,23.87
2018-05-07T05:45:20.864Z,23.85
2018-05-07T05:46:30.319Z,23.84
2018-05-07T05:47:39.228Z,23.85
2018-05-07T05:48:49.177Z,23.8
2018-05-07T05:49:59.151Z,23.85
2018-05-07T05:51:08.528Z,23.87
2018-05-07T05:52:17.956Z,23.88
2018-05-07T05:53:27.383Z,23.84
2018-05-07T05:54:36.543Z,23.88
2018-05-07T05:55:45.481Z,23.84
2018-05-07T05:56:54.922Z,23.79
2018-05-07T05:58:04.412Z,23.83
2018-05-07T05:59:14.116Z,23.87
2018-05-07T06:00:23.815Z,23.79
2018-05-07T06:01:32.964Z,23.88
2018-05-07T06:02:42.651Z,23.79
2018-05-07T06:03:52.856Z,23.76
2018-05-07T06:05:01.732Z,23.83
2018-05-07T06:06:10.908Z,23.88
2018-05-07T06:07:20.586Z,23.79
2018-05-07T06:08:30.020Z,23.83
2018-05-07T06:09:39.443Z,23.9
2018-05-07T06:10:48.619Z,23.79
2018-05-07T06:11:57.526Z,23.79
2018-05-07T06:13:06.692Z,23.76
2018-05-07T06:14:15.652Z,23.79
2018-05-07T06:15:24.626Z,23.84
2018-05-07T06:16:34.076Z,23.9
2018-05-07T06:17:43.497Z,24
2018-05-07T06:18:52.411Z,23.76
2018-05-07T06:20:01.826Z,23.85
2018-05-07T06:21:11.634Z,23.88
2018-05-07T06:22:20.877Z,23.88
2018-05-07T06:23:30.308Z,23.88
2018-05-07T06:24:39.994Z,23.87
2018-05-07T06:25:49.210Z,23.87
2018-05-07T06:26:58.400Z,23.88
2018-05-07T06:28:07.881Z,23.88
2018-05-07T06:29:17.293Z,23.84
2018-05-07T06:30:26.733Z,23.9
2018-05-07T06:31:35.692Z,23.85
2018-05-07T06:32:45.118Z,23.85
2018-05-07T06:33:54.055Z,23.79
2018-05-07T06:35:03.862Z,23.9
2018-05-07T06:36:13.643Z,23.88
2018-05-07T06:37:22.607Z,23.87
2018-05-07T06:38:31.807Z,23.9
2018-05-07T06:39:40.738Z,23.87
2018-05-07T06:40:49.656Z,23.87
2018-05-07T06:41:59.355Z,23.8
2018-05-07T06:43:08.834Z,23.85
2018-05-07T06:44:17.751Z,23.87
2018-05-07T06:45:26.969Z,23.85
2018-05-07T06:46:35.913Z,23.88
2018-05-07T06:47:45.677Z,23.9
2018-05-07T06:48:55.411Z,23.88
2018-05-07T06:50:04.847Z,23.9
2018-05-07T06:51:14.003Z,23.85
2018-05-07T06:52:23.469Z,23.83
2018-05-07T06:53:33.422Z,23.9
2018-05-07T06:54:42.331Z,23.84
2018-05-07T06:55:51.779Z,23.91
2018-05-07T06:57:00.707Z,23.91
2018-05-07T06:58:09.855Z,23.9
2018-05-07T06:59:19.018Z,23.85
2018-05-07T07:00:28.169Z,23.88
2018-05-07T07:01:37.581Z,23.87
2018-05-07T07:02:47.934Z,23.91
2018-05-07T07:03:57.710Z,23.97
2018-05-07T07:05:07.160Z,23.88
2018-05-07T07:06:16.333Z,23.94
2018-05-07T07:07:26.467Z,23.87
2018-05-07T07:08:37.318Z,23.91
2018-05-07T07:09:47.159Z,23.93
2018-05-07T07:10:56.095Z,23.95
2018-05-07T07:12:05.257Z,23.93
2018-05-07T07:13:14.426Z,23.9
2018-05-07T07:14:23.903Z,23.91
2018-05-07T07:15:33.619Z,23.91
2018-05-07T07:16:43.746Z,23.9
2018-05-07T07:17:52.935Z,23.91
2018-05-07T07:19:02.354Z,23.97
2018-05-07T07:20:11.775Z,23.93
2018-05-07T07:21:21.480Z,23.9
2018-05-07T07:22:30.899Z,23.95
2018-05-07T07:23:40.580Z,23.9
2018-05-07T07:24:50.063Z,23.91
2018-05-07T07:25:59.490Z,23.91
2018-05-07T07:27:09.395Z,23.88
2018-05-07T07:28:19.250Z,23.98
2018-05-07T07:29:28.736Z,23.88
2018-05-07T07:30:37.642Z,23.94
2018-05-07T07:31:47.076Z,23.95
2018-05-07T07:32:56.262Z,24
2018-05-07T07:34:06.460Z,23.93
2018-05-07T07:35:16.175Z,23.91
2018-05-07T07:36:25.619Z,23.94
2018-05-07T07:37:34.800Z,24.06
2018-05-07T07:38:43.972Z,24.09
2018-05-07T07:39:53.391Z,24.08
2018-05-07T07:41:02.804Z,23.95
2018-05-07T07:42:11.704Z,24.05
2018-05-07T07:43:21.396Z,23.97
2018-05-07T07:44:30.664Z,23.94
2018-05-07T07:45:40.345Z,24.03
2018-05-07T07:46:50.036Z,24
2018-05-07T07:47:59.212Z,24.05
2018-05-07T07:49:08.642Z,24.05
2018-05-07T07:50:17.531Z,24.05
2018-05-07T07:51:27.217Z,24.08
2018-05-07T07:52:36.806Z,24.08
2018-05-07T07:53:46.607Z,24.02
2018-05-07T07:54:56.233Z,24.03
2018-05-07T07:56:05.135Z,23.95
2018-05-07T07:57:14.563Z,23.97
2018-05-07T07:58:24.012Z,24.06
2018-05-07T07:59:33.218Z,24.08
2018-05-07T08:00:42.645Z,24.03
2018-05-07T08:01:52.071Z,24.06
2018-05-07T08:03:01.248Z,24.12
2018-05-07T08:04:10.816Z,24.05
2018-05-07T08:05:20.385Z,24.1
2018-05-07T08:06:29.550Z,24.09
2018-05-07T08:07:39.227Z,24.15
2018-05-07T08:08:48.646Z,24.06
2018-05-07T08:09:58.318Z,24.1
2018-05-07T08:11:07.491Z,24.09
2018-05-07T08:12:16.762Z,24.13
2018-05-07T08:13:26.710Z,24.08
2018-05-07T08:14:36.149Z,24.13
2018-05-07T08:15:45.816Z,24.2
2018-05-07T08:16:55.324Z,24.03
2018-05-07T08:18:05.036Z,24.06
2018-05-07T08:19:14.721Z,24.2
2018-05-07T08:20:23.892Z,24.12
2018-05-07T08:21:33.314Z,24.1
2018-05-07T08:22:43.015Z,24.08
2018-05-07T08:23:52.461Z,24.2
2018-05-07T08:25:01.648Z,24.08
2018-05-07T08:26:10.868Z,24.08
2018-05-07T08:27:20.071Z,24.13
2018-05-07T08:28:29.325Z,24.16
2018-05-07T08:29:38.238Z,24.08
2018-05-07T08:30:47.184Z,24.18
2018-05-07T08:31:56.607Z,24.09
2018-05-07T08:33:06.325Z,24.21
2018-05-07T08:34:15.241Z,24.1
2018-05-07T08:35:24.927Z,24.18
2018-05-07T08:36:34.730Z,24.13
2018-05-07T08:37:44.549Z,24.1
2018-05-07T08:38:53.455Z,24.02
2018-05-07T08:40:02.875Z,24.15
2018-05-07T08:41:12.283Z,24.13
2018-05-07T08:42:21.849Z,24.16
2018-05-07T08:43:31.476Z,24.13
2018-05-07T08:44:40.924Z,24.08
2018-05-07T08:45:50.332Z,24.06
2018-05-07T08:46:59.760Z,24.18
2018-05-07T08:48:08.702Z,24.05
2018-05-07T08:49:17.874Z,24.15
2018-05-07T08:50:27.122Z,24.08
2018-05-07T08:51:36.062Z,24.18
2018-05-07T08:52:46.253Z,24.16
2018-05-07T08:53:56.022Z,24.06
2018-05-07T08:55:04.929Z,24.06
2018-05-07T08:56:14.130Z,24.03
2018-05-07T08:57:23.609Z,24.09
2018-05-07T08:58:33.343Z,24.13
2018-05-07T08:59:43.078Z,24.05
2018-05-07T09:00:51.744Z,24.18
2018-05-07T09:02:01.274Z,24.06
2018-05-07T09:03:11.100Z,24.13
2018-05-07T09:04:20.569Z,24.13
2018-05-07T09:05:30.362Z,24.09
2018-05-07T09:06:39.572Z,24.18
2018-05-07T09:07:48.736Z,24.15
2018-05-07T09:08:57.896Z,24.08
2018-05-07T09:10:07.081Z,24.18
2018-05-07T09:11:16.244Z,24.16
2018-05-07T09:12:25.144Z,24.16
2018-05-07T09:13:34.453Z,24.2
2018-05-07T09:14:43.713Z,24.13
2018-05-07T09:15:53.448Z,24.18
2018-05-07T09:17:03.164Z,24.12
2018-05-07T09:18:12.575Z,24.12
2018-05-07T09:19:21.762Z,24.13
2018-05-07T09:20:31.477Z,24.12
2018-05-07T09:21:40.881Z,24.15
2018-05-07T09:22:50.312Z,24.15
2018-05-07T09:23:59.729Z,24.15
2018-05-07T09:25:09.170Z,24.05
2018-05-07T09:26:18.343Z,24.06
2018-05-07T09:27:28.035Z,24.06
2018-05-07T09:28:37.722Z,24.13
2018-05-07T09:29:46.646Z,24.2
2018-05-07T09:30:56.074Z,24.06
2018-05-07T09:32:05.229Z,24.21
2018-05-07T09:33:14.407Z,24.18
2018-05-07T09:34:23.585Z,24.16
2018-05-07T09:35:33.252Z,24.18
2018-05-07T09:36:43.191Z,24.22
2018-05-07T09:37:52.636Z,24.16
2018-05-07T09:39:01.527Z,24.21
2018-05-07T09:40:11.486Z,24.2
2018-05-07T09:41:20.916Z,24.13
2018-05-07T09:42:30.089Z,24.2
2018-05-07T09:43:39.513Z,24.24
2018-05-07T09:44:48.971Z,24.16
2018-05-07T09:45:58.692Z,24.18
2018-05-07T09:47:07.857Z,24.18
2018-05-07T09:48:17.802Z,24.27
2018-05-07T09:49:27.849Z,24.25
2018-05-07T09:50:37.323Z,24.2
2018-05-07T09:51:46.535Z,24.2
2018-05-07T09:52:55.983Z,24.21
2018-05-07T09:54:05.400Z,24.21
2018-05-07T09:55:14.836Z,24.2
2018-05-07T09:56:24.263Z,24.22
2018-05-07T09:57:33.739Z,24.18
2018-05-07T09:58:43.195Z,24.28
2018-05-07T09:59:52.367Z,24.22
2018-05-07T10:01:01.536Z,24.25
2018-05-07T10:02:10.735Z,24.25
2018-05-07T10:03:20.166Z,24.34
2018-05-07T10:04:29.334Z,24.25
2018-05-07T10:05:38.511Z,24.2
2018-05-07T10:06:48.204Z,24.31
2018-05-07T10:07:57.639Z,24.28
2018-05-07T10:09:07.335Z,24.3
2018-05-07T10:10:17.045Z,24.27
2018-05-07T10:11:27.435Z,24.27
2018-05-07T10:12:36.608Z,24.28
2018-05-07T10:13:45.775Z,24.27
2018-05-07T10:14:55.470Z,24.27
2018-05-07T10:16:05.323Z,24.3
2018-05-07T10:17:14.915Z,24.27
2018-05-07T10:18:24.363Z,24.28
2018-05-07T10:19:34.060Z,24.28
2018-05-07T10:20:43.495Z,24.24
2018-05-07T10:21:53.175Z,24.27
2018-05-07T10:23:02.631Z,24.25
2018-05-07T10:24:12.469Z,24.24
2018-05-07T10:25:22.117Z,24.32
2018-05-07T10:26:31.560Z,24.3
2018-05-07T10:27:40.751Z,24.09
2018-05-07T10:28:50.213Z,24.3
2018-05-07T10:29:59.328Z,24.13
2018-05-07T10:31:09.010Z,24.18
2018-05-07T10:32:18.445Z,24.28
2018-05-07T10:33:27.893Z,24.27
2018-05-07T10:34:37.596Z,24.3
2018-05-07T10:35:46.771Z,24.12
2018-05-07T10:36:55.968Z,24.31
2018-05-07T10:38:05.540Z,24.28
2018-05-07T10:39:14.699Z,24.24
2018-05-07T10:40:23.896Z,24.21
2018-05-07T10:41:33.347Z,24.2
2018-05-07T10:42:43.108Z,24.24
2018-05-07T10:43:52.855Z,24.21
2018-05-07T10:45:02.048Z,24.28
2018-05-07T10:46:11.496Z,24.22
2018-05-07T10:47:21.177Z,24.2
2018-05-07T10:48:30.384Z,24.28
2018-05-07T10:49:39.305Z,24.1
2018-05-07T10:50:48.467Z,24.18
2018-05-07T10:51:57.379Z,24.2
2018-05-07T10:53:06.557Z,24.24
2018-05-07T10:54:15.748Z,24.2
2018-05-07T10:55:25.170Z,24.21
2018-05-07T10:56:34.598Z,24.25
2018-05-07T10:57:44.576Z,24.24
2018-05-07T10:58:53.508Z,24.2
2018-05-07T11:00:02.944Z,24.24
2018-05-07T11:01:12.086Z,24.24
2018-05-07T11:02:21.014Z,24.22
2018-05-07T11:03:30.171Z,24.22
2018-05-07T11:04:39.345Z,24.16
2018-05-07T11:05:48.541Z,24.24
2018-05-07T11:06:57.711Z,24.18
2018-05-07T11:08:06.878Z,24.25
2018-05-07T11:09:15.850Z,24.22
2018-05-07T11:10:24.765Z,24.25
2018-05-07T11:11:34.451Z,24.22
2018-05-07T11:12:43.648Z,24.1
2018-05-07T11:13:53.106Z,24.25
2018-05-07T11:15:02.399Z,24.21
2018-05-07T11:16:11.641Z,24.2
2018-05-07T11:17:21.170Z,24.16
2018-05-07T11:18:30.441Z,24.18
2018-05-07T11:19:40.229Z,24.21
2018-05-07T11:20:50.434Z,24.25
2018-05-07T11:21:59.858Z,24.18
2018-05-07T11:23:09.286Z,24.15
2018-05-07T11:24:18.447Z,24.22
2018-05-07T11:25:28.156Z,24.16
2018-05-07T11:26:37.596Z,24.2
2018-05-07T11:27:46.774Z,24.22
2018-05-07T11:28:55.966Z,24.2
2018-05-07T11:30:05.470Z,24.24
2018-05-07T11:31:15.131Z,24.21
2018-05-07T11:32:24.493Z,24.24
2018-05-07T11:33:34.247Z,24.24
2018-05-07T11:34:43.951Z,24.24
2018-05-07T11:35:53.558Z,24.13
2018-05-07T11:37:02.858Z,24.2
2018-05-07T11:38:12.054Z,24.2
2018-05-07T11:39:21.229Z,24.21
2018-05-07T11:40:31.191Z,24.24
2018-05-07T11:41:40.394Z,24.18
2018-05-07T11:42:49.308Z,24.24
2018-05-07T11:43:58.266Z,24.25
2018-05-07T11:45:07.191Z,24.24
2018-05-07T11:46:16.594Z,24.2
2018-05-07T11:47:25.877Z,24.22
2018-05-07T11:48:35.547Z,24.2
2018-05-07T11:49:44.988Z,24.22
2018-05-07T11:50:54.675Z,24.22
2018-05-07T11:52:03.617Z,24.27
2018-05-07T11:53:13.540Z,24.16
2018-05-07T11:54:23.587Z,24.22
2018-05-07T11:55:33.031Z,24.2
2018-05-07T11:56:42.484Z,24.2
2018-05-07T11:57:51.904Z,24.27
2018-05-07T11:59:00.548Z,24.25
2018-05-07T12:00:10.311Z,24.18
2018-05-07T12:01:19.738Z,24.21
2018-05-07T12:02:29.624Z,24.24
2018-05-07T12:03:39.459Z,24.25
2018-05-07T12:04:48.638Z,24.1
2018-05-07T12:05:57.606Z,24.22
2018-05-07T12:07:06.773Z,24.22
2018-05-07T12:08:16.484Z,24.09
2018-05-07T12:09:25.942Z,24.22
2018-05-07T12:10:35.388Z,24.13
2018-05-07T12:11:44.834Z,24.22
2018-05-07T12:12:53.721Z,24.28
2018-05-07T12:14:03.148Z,24.22
2018-05-07T12:15:12.807Z,24.21
2018-05-07T12:16:22.234Z,24.28
2018-05-07T12:17:31.474Z,24.27
2018-05-07T12:18:41.452Z,24.31
2018-05-07T12:19:50.879Z,24.3
2018-05-07T12:21:00.294Z,24.18
2018-05-07T12:22:09.460Z,24.25
2018-05-07T12:23:18.488Z,24.24
2018-05-07T12:24:28.670Z,24.28
2018-05-07T12:25:38.368Z,24.24
2018-05-07T12:26:48.312Z,24.27
2018-05-07T12:27:57.718Z,24.28
2018-05-07T12:29:06.878Z,24.3
2018-05-07T12:30:16.625Z,24.32
2018-05-07T12:31:26.034Z,24.25
2018-05-07T12:32:35.487Z,24.28
2018-05-07T12:33:45.223Z,24.31
2018-05-07T12:34:54.638Z,24.3
2018-05-07T12:36:03.813Z,24.32
2018-05-07T12:37:12.959Z,24.32
2018-05-07T12:38:21.870Z,24.3
2018-05-07T12:39:31.841Z,24.34
2018-05-07T12:40:41.108Z,24.3
2018-05-07T12:41:50.804Z,24.32
2018-05-07T12:43:00.528Z,24.28
2018-05-07T12:44:09.743Z,24.34
2018-05-07T12:45:19.165Z,24.34
2018-05-07T12:46:28.915Z,24.35
2018-05-07T12:47:38.855Z,24.31
2018-05-07T12:48:47.745Z,24.34
2018-05-07T12:49:56.956Z,24.31
2018-05-07T12:51:06.377Z,24.34
2018-05-07T12:52:15.906Z,24.3
2018-05-07T12:53:26.004Z,24.31
2018-05-07T12:54:35.196Z,24.32
2018-05-07T12:55:44.622Z,24.31
2018-05-07T12:56:54.047Z,24.34
2018-05-07T12:58:03.456Z,24.43
2018-05-07T12:59:13.380Z,24.34
2018-05-07T13:00:22.819Z,24.46
2018-05-07T13:01:32.248Z,24.35
2018-05-07T13:02:41.445Z,24.27
2018-05-07T13:03:50.885Z,24.24
2018-05-07T13:05:00.071Z,24.42
2018-05-07T13:06:08.727Z,24.35
2018-05-07T13:07:17.875Z,24.31
2018-05-07T13:08:27.054Z,24.3
2018-05-07T13:09:35.989Z,24.32
2018-05-07T13:10:44.938Z,24.31
2018-05-07T13:11:54.661Z,24.35
2018-05-07T13:13:03.643Z,24.42
2018-05-07T13:14:12.884Z,24.4
2018-05-07T13:15:22.359Z,24.43
2018-05-07T13:16:31.549Z,24.43
2018-05-07T13:17:40.985Z,24.43
2018-05-07T13:18:50.152Z,24.45
2018-05-07T13:19:59.065Z,24.35
2018-05-07T13:21:08.800Z,24.39
2018-05-07T13:22:17.986Z,24.49
2018-05-07T13:23:27.923Z,24.46
2018-05-07T13:24:37.658Z,24.45
2018-05-07T13:25:46.931Z,24.46
2018-05-07T13:26:56.617Z,24.43
2018-05-07T13:28:06.065Z,24.52
2018-05-07T13:29:15.746Z,24.47
2018-05-07T13:30:24.642Z,24.58
2018-05-07T13:31:33.823Z,24.45
2018-05-07T13:32:43.527Z,24.49
2018-05-07T13:33:53.236Z,24.47
2018-05-07T13:35:02.665Z,24.55
2018-05-07T13:36:11.827Z,24.52
2018-05-07T13:37:21.763Z,24.55
2018-05-07T13:38:31.204Z,24.52
2018-05-07T13:39:40.614Z,24.6
2018-05-07T13:40:50.308Z,24.55
2018-05-07T13:41:59.508Z,24.62
2018-05-07T13:43:09.351Z,24.58
2018-05-07T13:44:18.922Z,24.57
2018-05-07T13:45:28.618Z,24.53
2018-05-07T13:46:37.542Z,24.6
2018-05-07T13:47:46.747Z,24.53
2018-05-07T13:48:56.304Z,24.57
2018-05-07T13:50:06.033Z,24.62
2018-05-07T13:51:15.879Z,24.58
2018-05-07T13:52:25.298Z,24.58
2018-05-07T13:53:34.722Z,24.57
2018-05-07T13:54:44.155Z,24.58
2018-05-07T13:55:53.827Z,24.53
2018-05-07T13:57:03.438Z,24.67
2018-05-07T13:58:12.078Z,24.64
2018-05-07T13:59:21.772Z,24.68
2018-05-07T14:00:31.214Z,24.65
2018-05-07T14:01:40.664Z,24.62
2018-05-07T14:02:50.995Z,24.65
2018-05-07T14:04:00.181Z,24.65
2018-05-07T14:05:09.648Z,24.69
2018-05-07T14:06:19.081Z,24.69
2018-05-07T14:07:28.790Z,24.76
2018-05-07T14:08:38.510Z,24.73
2018-05-07T14:09:47.790Z,24.68
2018-05-07T14:10:57.447Z,24.73
2018-05-07T14:12:06.878Z,24.68
2018-05-07T14:13:16.051Z,24.69
2018-05-07T14:14:25.774Z,24.77
2018-05-07T14:15:35.729Z,24.8
2018-05-07T14:16:44.429Z,24.8
2018-05-07T14:17:54.648Z,24.78
2018-05-07T14:19:03.839Z,24.83
2018-05-07T14:20:13.282Z,24.81
2018-05-07T14:21:22.969Z,24.76
2018-05-07T14:22:31.900Z,24.77
2018-05-07T14:23:41.137Z,24.84
2018-05-07T14:24:50.817Z,24.78
2018-05-07T14:26:00.010Z,24.88
2018-05-07T14:27:09.528Z,24.83
2018-05-07T14:28:18.707Z,24.84
2018-05-07T14:29:28.386Z,24.8
2018-05-07T14:30:37.555Z,24.8
2018-05-07T14:31:47.015Z,24.83
2018-05-07T14:32:56.744Z,24.81
2018-05-07T14:34:06.492Z,24.83
2018-05-07T14:35:15.684Z,24.84
2018-05-07T14:36:24.882Z,24.88
2018-05-07T14:37:34.067Z,24.96
2018-05-07T14:38:43.896Z,24.91
2018-05-07T14:39:53.417Z,24.93
2018-05-07T14:41:02.329Z,24.88
2018-05-07T14:42:11.527Z,24.96
2018-05-07T14:43:20.438Z,24.93
2018-05-07T14:44:29.869Z,24.88
2018-05-07T14:45:38.815Z,24.91
2018-05-07T14:46:48.247Z,24.9
2018-05-07T14:47:58.205Z,24.93
2018-05-07T14:49:07.382Z,24.93
2018-05-07T14:50:16.937Z,25
2018-05-07T14:51:26.185Z,24.93
2018-05-07T14:52:35.712Z,24.9
2018-05-07T14:53:45.189Z,24.9
2018-05-07T14:54:54.378Z,24.9
2018-05-07T14:56:03.568Z,24.95
2018-05-07T14:57:13.101Z,24.91
2018-05-07T14:58:22.570Z,24.9
2018-05-07T14:59:32.007Z,24.91